Time;durP1;ratioP1;P1;durP2;ratioP2;P2;SDS_P1;SDS_P2;PMS_P1;PMS_P2;Temp;Humidity;BMP_temperature;BMP_pressure;BME280_temperature;BME280_humidity;BME280_pressure;Samples;Min_cycle;Max_cycle;Signal;HPM_P1;HPM_P2
2021/01/31 02:15:56;;;;;;;1.27;0.63;;;21.90;65.50;;;;;;4984523;27;96375;-46
2021/01/31 02:18:42;;;;;;;1.45;0.65;;;21.90;65.40;;;;;;4972969;28;95434;-45
2021/01/31 02:21:51;;;;;;;2.45;0.68;;;22.00;65.40;;;;;;4973205;28;96272;-45
2021/01/31 02:24:36;;;;;;;3.20;1.10;;;22.00;65.40;;;;;;4971488;28;95858;-45
2021/01/31 02:27:41;;;;;;;1.88;0.82;;;22.00;65.30;;;;;;4960796;28;96049;-46
2021/01/31 02:30:45;;;;;;;2.33;0.75;;;22.00;65.30;;;;;;4977907;28;96423;-47
2021/01/31 02:33:19;;;;;;;1.35;0.60;;;22.10;65.20;;;;;;4987423;28;95842;-45
2021/01/31 02:35:53;;;;;;;1.55;0.77;;;22.10;64.90;;;;;;4995807;28;95858;-45
2021/01/31 02:38:49;;;;;;;1.70;0.98;;;22.10;64.90;;;;;;4975770;28;95891;-45
2021/01/31 02:41:43;;;;;;;2.60;1.00;;;22.10;65.10;;;;;;4979826;28;96068;-45
2021/01/31 02:44:18;;;;;;;5.40;1.63;;;22.20;65.10;;;;;;4995076;28;95930;-45
2021/01/31 02:47:00;;;;;;;2.03;0.80;;;22.20;64.90;;;;;;4996788;28;95529;-45
2021/01/31 02:49:40;;;;;;;1.52;0.68;;;22.20;65.00;;;;;;4984889;28;95828;-45
2021/01/31 02:52:18;;;;;;;2.17;0.80;;;22.20;64.80;;;;;;4992562;28;95858;-45
2021/01/31 02:54:54;;;;;;;1.58;0.82;;;22.20;64.60;;;;;;4973494;28;96259;-47
2021/01/31 02:57:40;;;;;;;1.80;0.90;;;22.30;64.60;;;;;;4982944;28;95808;-46
2021/01/31 03:00:22;;;;;;;1.95;0.90;;;22.30;64.70;;;;;;5001346;28;96372;-46
2021/01/31 03:03:09;;;;;;;1.90;1.00;;;22.30;64.50;;;;;;5001389;28;98757;-45
2021/01/31 03:05:43;;;;;;;2.50;0.88;;;22.40;65.10;;;;;;5001689;28;96164;-47
2021/01/31 03:08:23;;;;;;;1.88;1.00;;;22.40;64.30;;;;;;4973751;28;95897;-45
2021/01/31 03:11:21;;;;;;;3.57;0.70;;;22.40;64.20;;;;;;4999117;28;96612;-46
2021/01/31 03:14:05;;;;;;;2.53;0.70;;;22.40;64.20;;;;;;4998338;28;95639;-46
2021/01/31 03:17:11;;;;;;;1.63;0.88;;;22.50;64.10;;;;;;4995594;28;95915;-45
2021/01/31 03:20:09;;;;;;;2.92;0.80;;;22.50;64.10;;;;;;4997101;28;95731;-45
2021/01/31 03:23:06;;;;;;;1.23;0.75;;;22.60;64.20;;;;;;4995266;28;95915;-45
2021/01/31 03:25:45;;;;;;;2.35;1.30;;;22.60;64.10;;;;;;4959604;28;100043;-46
2021/01/31 03:28:16;;;;;;;3.63;1.23;;;22.60;64.00;;;;;;5001538;28;95775;-45
2021/01/31 03:30:48;;;;;;;3.08;1.70;;;22.60;63.90;;;;;;4993418;28;97196;-46
2021/01/31 03:33:31;;;;;;;4.07;1.20;;;22.70;63.90;;;;;;5001266;28;95982;-45
2021/01/31 03:36:03;;;;;;;1.92;1.10;;;22.70;63.80;;;;;;4990066;28;96252;-45
2021/01/31 03:38:41;;;;;;;1.75;1.00;;;22.80;63.80;;;;;;5001454;28;97237;-45
2021/01/31 03:41:18;;;;;;;3.38;1.25;;;22.80;63.80;;;;;;4975971;28;96021;-45
2021/01/31 03:43:50;;;;;;;2.63;0.88;;;22.80;63.80;;;;;;4995761;28;95986;-45
2021/01/31 03:46:55;;;;;;;3.55;1.52;;;22.80;63.80;;;;;;4990622;28;96004;-46
2021/01/31 03:49:54;;;;;;;4.80;1.52;;;22.90;63.80;;;;;;4973013;28;97131;-50
2021/01/31 03:52:29;;;;;;;2.28;1.40;;;22.90;63.80;;;;;;4996270;28;95861;-46
2021/01/31 03:55:00;;;;;;;3.90;1.10;;;23.00;63.60;;;;;;4997652;28;96631;-46
2021/01/31 03:57:38;;;;;;;3.65;1.50;;;23.00;63.50;;;;;;5000730;28;96039;-45
2021/01/31 04:00:35;;;;;;;1.40;1.17;;;23.00;63.40;;;;;;4998149;28;101034;-46
2021/01/31 04:03:18;;;;;;;2.90;1.25;;;23.00;63.40;;;;;;4986674;28;96231;-46
2021/01/31 04:05:59;;;;;;;2.55;1.15;;;23.00;63.30;;;;;;4996693;28;96217;-48
2021/01/31 04:08:33;;;;;;;2.13;1.10;;;23.10;63.20;;;;;;4977715;28;95303;-48
2021/01/31 04:11:04;;;;;;;2.95;1.10;;;23.00;62.80;;;;;;4985113;28;96280;-48
2021/01/31 04:13:36;;;;;;;3.00;0.93;;;23.10;62.70;;;;;;4983975;28;95706;-45
2021/01/31 04:16:08;;;;;;;2.33;1.30;;;23.10;62.70;;;;;;4982738;28;95873;-47
2021/01/31 04:18:39;;;;;;;1.25;0.90;;;23.10;62.60;;;;;;4987958;28;97437;-44
2021/01/31 04:21:10;;;;;;;2.90;1.40;;;23.10;62.30;;;;;;4999861;28;96029;-46
2021/01/31 04:23:41;;;;;;;1.60;1.00;;;23.10;62.30;;;;;;5009327;28;95922;-46
2021/01/31 04:26:12;;;;;;;1.52;0.95;;;23.10;62.30;;;;;;5002352;28;96589;-45
2021/01/31 04:28:43;;;;;;;2.92;1.45;;;23.20;62.40;;;;;;5000944;28;95978;-47
2021/01/31 04:31:13;;;;;;;1.95;1.17;;;23.20;62.30;;;;;;4964726;28;97341;-48
2021/01/31 04:33:44;;;;;;;1.73;0.93;;;23.20;62.30;;;;;;4979325;28;96149;-47
2021/01/31 04:36:16;;;;;;;3.73;1.23;;;23.30;62.20;;;;;;5005022;28;95952;-50
2021/01/31 04:38:48;;;;;;;3.63;1.42;;;23.30;62.00;;;;;;5002474;28;99132;-47
2021/01/31 04:41:20;;;;;;;5.00;1.63;;;23.30;61.80;;;;;;5004504;28;96058;-47
2021/01/31 04:43:53;;;;;;;4.55;1.30;;;23.30;61.80;;;;;;4996942;28;95463;-46
2021/01/31 04:46:46;;;;;;;2.90;1.00;;;23.30;61.60;;;;;;4992296;28;96869;-45
2021/01/31 04:49:29;;;;;;;3.30;1.40;;;23.40;61.60;;;;;;5002747;28;98721;-47
2021/01/31 04:52:16;;;;;;;2.50;1.35;;;23.40;61.40;;;;;;4997129;28;95432;-45
2021/01/31 04:54:57;;;;;;;1.70;0.80;;;23.30;61.20;;;;;;5005476;28;96105;-46
2021/01/31 04:57:41;;;;;;;4.03;1.17;;;23.30;60.90;;;;;;5003609;27;96206;-47
2021/01/31 05:00:25;;;;;;;3.03;1.17;;;23.30;61.40;;;;;;4997320;28;96144;-50
2021/01/31 05:03:01;;;;;;;2.97;1.00;;;23.40;60.90;;;;;;4998308;28;96029;-46
2021/01/31 05:05:40;;;;;;;3.25;0.98;;;23.40;60.70;;;;;;4991118;28;95858;-48
2021/01/31 05:08:25;;;;;;;4.70;1.63;;;23.40;60.60;;;;;;4999319;28;95942;-49
2021/01/31 05:11:23;;;;;;;3.40;1.17;;;23.40;60.90;;;;;;4999627;28;95797;-46
2021/01/31 05:14:02;;;;;;;5.25;1.30;;;23.40;60.70;;;;;;4999511;28;103252;-47
2021/01/31 05:16:33;;;;;;;2.38;1.10;;;23.50;60.50;;;;;;4999107;28;95799;-47
2021/01/31 05:19:07;;;;;;;3.97;1.20;;;23.50;60.40;;;;;;5000928;28;95876;-48
2021/01/31 05:21:38;;;;;;;2.83;1.33;;;23.50;60.30;;;;;;5004708;28;95887;-49
2021/01/31 05:24:14;;;;;;;3.38;1.30;;;23.50;60.20;;;;;;5001380;28;95710;-48
2021/01/31 05:26:54;;;;;;;6.20;1.30;;;23.60;60.50;;;;;;4999546;28;97958;-48
2021/01/31 05:29:32;;;;;;;3.45;1.40;;;23.60;60.50;;;;;;4995713;28;96558;-51
2021/01/31 05:32:16;;;;;;;1.65;0.95;;;23.60;60.70;;;;;;4999842;28;96087;-48
2021/01/31 05:34:51;;;;;;;2.15;0.98;;;23.60;60.70;;;;;;5001646;28;95485;-48
2021/01/31 05:37:24;;;;;;;2.90;1.15;;;23.60;60.80;;;;;;4987433;28;95655;-49
2021/01/31 05:40:01;;;;;;;1.20;0.93;;;23.60;60.70;;;;;;4997549;28;95938;-50
2021/01/31 05:42:35;;;;;;;5.72;1.33;;;23.60;60.90;;;;;;5002891;28;95950;-48
2021/01/31 05:45:20;;;;;;;3.30;1.20;;;23.60;60.90;;;;;;4999887;28;95943;-48
2021/01/31 05:47:53;;;;;;;3.10;1.27;;;23.60;60.90;;;;;;4986539;28;96830;-51
2021/01/31 05:50:40;;;;;;;1.58;0.98;;;23.60;60.90;;;;;;4995996;28;96203;-49
2021/01/31 05:53:31;;;;;;;1.98;1.10;;;23.70;60.90;;;;;;5010102;27;95936;-48
2021/01/31 05:56:25;;;;;;;1.98;1.23;;;23.70;60.90;;;;;;4990638;28;95795;-48
2021/01/31 05:59:00;;;;;;;2.28;0.90;;;23.70;60.90;;;;;;4998730;28;95833;-50
2021/01/31 06:01:30;;;;;;;1.60;1.10;;;23.70;60.70;;;;;;4997936;28;96180;-48
2021/01/31 06:04:11;;;;;;;;;;;23.60;60.90;;;;;;5001101;28;95322;-48
2021/01/31 06:06:44;;;;;;;1.80;1.25;;;23.70;60.00;;;;;;5001220;28;95810;-51
2021/01/31 06:09:42;;;;;;;1.67;0.80;;;23.70;60.70;;;;;;5002281;28;95987;-47
2021/01/31 06:12:25;;;;;;;2.85;0.90;;;23.70;60.00;;;;;;4974272;28;96425;-44
2021/01/31 06:15:20;;;;;;;3.97;1.38;;;23.80;59.70;;;;;;5000572;28;96013;-49
2021/01/31 06:18:20;;;;;;;2.25;0.90;;;23.80;60.50;;;;;;5001134;28;95789;-49
2021/01/31 06:20:51;;;;;;;1.95;1.10;;;23.80;60.00;;;;;;4968564;28;102412;-47
2021/01/31 06:23:39;;;;;;;2.53;1.15;;;23.80;60.40;;;;;;4980753;28;96168;-50
2021/01/31 06:26:25;;;;;;;3.15;1.27;;;23.80;59.90;;;;;;4978404;28;95997;-48
2021/01/31 06:29:06;;;;;;;3.95;0.93;;;23.70;59.80;;;;;;4965544;28;95380;-47
2021/01/31 06:31:47;;;;;;;4.43;1.45;;;23.70;59.60;;;;;;4976495;28;96771;-47
2021/01/31 06:34:18;;;;;;;;;;;23.70;59.60;;;;;;4999894;28;95871;-48
2021/01/31 06:37:03;;;;;;;2.65;1.10;;;23.70;59.70;;;;;;4998091;28;95397;-48
2021/01/31 06:39:51;;;;;;;2.97;1.10;;;23.60;59.60;;;;;;5001507;28;95720;-48
2021/01/31 06:42:48;;;;;;;3.92;1.20;;;23.60;59.80;;;;;;4999046;28;95944;-48
2021/01/31 06:45:40;;;;;;;2.92;0.98;;;23.70;60.00;;;;;;4975775;28;96729;-48
2021/01/31 06:48:37;;;;;;;3.05;0.95;;;23.60;59.80;;;;;;4985361;28;102121;-48
2021/01/31 06:51:32;;;;;;;4.32;1.10;;;23.60;59.60;;;;;;4990363;28;96096;-47
2021/01/31 06:54:23;;;;;;;3.03;0.93;;;23.50;59.30;;;;;;4992627;28;96085;-47
2021/01/31 06:57:18;;;;;;;4.80;1.17;;;23.50;59.20;;;;;;4987594;28;95879;-47
2021/01/31 06:59:52;;;;;;;5.03;1.05;;;23.40;58.80;;;;;;4987654;28;98127;-46
2021/01/31 07:02:41;;;;;;;3.75;1.08;;;23.30;58.70;;;;;;4985419;28;95971;-47
2021/01/31 07:05:58;;;;;;;3.58;1.55;;;23.30;58.80;;;;;;4982595;28;95555;-47
2021/01/31 07:08:45;;;;;;;5.28;1.75;;;23.20;59.00;;;;;;4974787;28;99925;-46
2021/01/31 07:11:49;;;;;;;4.30;1.23;;;23.20;58.90;;;;;;4994220;28;96008;-49
2021/01/31 07:15:05;;;;;;;5.43;1.23;;;23.20;58.80;;;;;;4999027;28;96656;-45
2021/01/31 07:17:56;;;;;;;3.63;1.13;;;23.10;58.90;;;;;;4967712;28;96651;-45
2021/01/31 07:20:35;;;;;;;3.10;1.48;;;23.10;58.80;;;;;;4981906;28;96129;-45
2021/01/31 07:23:17;;;;;;;4.45;1.17;;;23.10;58.70;;;;;;4979267;28;98757;-47
2021/01/31 07:25:57;;;;;;;4.38;1.38;;;23.10;58.60;;;;;;4983700;28;95913;-44
2021/01/31 07:28:32;;;;;;;6.95;1.25;;;23.10;59.30;;;;;;4979887;28;95822;-47
2021/01/31 07:31:21;;;;;;;2.80;1.40;;;23.00;58.30;;;;;;4981935;28;96896;-45
2021/01/31 07:34:11;;;;;;;2.38;1.30;;;23.00;58.60;;;;;;4996022;28;95983;-46
2021/01/31 07:36:56;;;;;;;1.67;0.88;;;23.00;58.70;;;;;;4982905;28;96077;-47
2021/01/31 07:39:57;;;;;;;4.78;1.60;;;23.00;58.80;;;;;;5005389;28;95788;-46
2021/01/31 07:42:30;;;;;;;2.65;0.88;;;23.00;58.80;;;;;;5005298;28;96062;-46
2021/01/31 07:45:27;;;;;;;2.42;1.13;;;22.90;58.80;;;;;;4986897;28;97273;-46
2021/01/31 07:48:29;;;;;;;2.05;1.35;;;22.90;59.00;;;;;;5004963;28;95845;-46
2021/01/31 07:51:02;;;;;;;3.90;1.40;;;22.90;59.20;;;;;;4979899;28;95545;-46
2021/01/31 07:53:36;;;;;;;5.15;1.33;;;22.90;59.10;;;;;;5001876;28;96107;-45
2021/01/31 07:56:36;;;;;;;4.35;1.00;;;23.00;59.40;;;;;;4986058;28;97259;-46
2021/01/31 07:59:12;;;;;;;6.60;1.70;;;22.90;59.30;;;;;;5003892;28;95823;-45
2021/01/31 08:01:41;;;;;;;2.92;0.80;;;22.90;59.50;;;;;;4994060;28;95879;-45
2021/01/31 08:04:17;;;;;;;3.13;1.38;;;22.90;59.00;;;;;;4985374;28;96064;-45
2021/01/31 08:06:59;;;;;;;2.17;1.08;;;22.90;59.30;;;;;;4983010;28;96115;-45
2021/01/31 08:09:30;;;;;;;2.25;0.93;;;22.90;58.70;;;;;;4973850;28;96965;-47
2021/01/31 08:12:15;;;;;;;1.95;1.00;;;22.90;59.30;;;;;;4978279;28;96029;-46
2021/01/31 08:15:08;;;;;;;3.47;1.48;;;22.80;59.30;;;;;;4979392;28;97456;-46
2021/01/31 08:17:46;;;;;;;2.92;0.88;;;22.80;59.20;;;;;;4983501;28;97907;-46
2021/01/31 08:20:17;;;;;;;1.85;1.20;;;22.80;58.80;;;;;;4987581;28;96868;-46
2021/01/31 08:22:48;;;;;;;;;;;22.70;58.90;;;;;;5007562;28;95661;-47
2021/01/31 08:25:17;;;;;;;3.65;1.50;;;22.70;59.10;;;;;;5000194;28;96611;-46
2021/01/31 08:28:14;;;;;;;6.32;1.88;;;22.70;59.20;;;;;;5002396;28;95608;-47
2021/01/31 08:31:03;;;;;;;1.95;0.90;;;22.70;58.90;;;;;;4997356;28;95410;-47
2021/01/31 08:33:36;;;;;;;3.00;1.00;;;22.60;59.10;;;;;;5005930;28;95829;-46
2021/01/31 08:36:16;;;;;;;2.55;0.50;;;22.60;59.10;;;;;;5003117;28;96072;-46
2021/01/31 08:38:54;;;;;;;5.95;1.35;;;22.60;59.10;;;;;;4988552;28;95443;-46
2021/01/31 08:41:37;;;;;;;2.92;1.02;;;22.60;58.80;;;;;;4981503;28;96392;-46
2021/01/31 08:44:10;;;;;;;8.52;0.95;;;22.60;59.10;;;;;;4968842;28;96048;-47
2021/01/31 08:47:02;;;;;;;6.93;1.20;;;22.50;59.00;;;;;;4984445;28;96695;-46
2021/01/31 08:49:33;;;;;;;3.92;1.00;;;22.40;59.60;;;;;;4963725;28;95794;-46
2021/01/31 08:52:12;;;;;;;4.53;1.50;;;22.40;58.80;;;;;;4975920;28;95360;-46
2021/01/31 08:54:58;;;;;;;8.70;1.27;;;22.40;59.10;;;;;;4975404;28;96193;-46
2021/01/31 08:57:29;;;;;;;2.55;1.67;;;22.40;59.50;;;;;;4977774;28;96049;-46
2021/01/31 09:00:08;;;;;;;7.53;1.40;;;22.40;60.10;;;;;;4962482;28;97384;-45
2021/01/31 09:02:42;;;;;;;4.75;1.10;;;22.40;59.60;;;;;;4975191;28;96493;-45
2021/01/31 09:05:18;;;;;;;2.63;0.90;;;22.40;59.60;;;;;;4981505;28;95349;-45
2021/01/31 09:07:53;;;;;;;4.22;1.30;;;22.40;59.30;;;;;;4980313;28;96938;-45
2021/01/31 09:10:32;;;;;;;3.83;0.80;;;22.30;59.50;;;;;;4983243;28;95311;-45
2021/01/31 09:13:14;;;;;;;4.57;1.48;;;22.30;59.30;;;;;;4979617;28;98133;-45
2021/01/31 09:15:45;;;;;;;5.72;1.00;;;22.30;59.00;;;;;;4973611;28;96022;-45
2021/01/31 09:18:23;;;;;;;4.77;1.10;;;22.30;59.00;;;;;;4978767;28;96888;-46
2021/01/31 09:20:54;;;;;;;1.88;0.95;;;22.20;58.70;;;;;;4966782;28;95924;-46
2021/01/31 09:23:34;;;;;;;2.60;1.02;;;22.20;58.80;;;;;;4959370;28;95909;-45
2021/01/31 09:26:05;;;;;;;2.83;1.10;;;22.10;59.10;;;;;;4983990;28;95407;-45
2021/01/31 09:28:41;;;;;;;1.25;0.70;;;22.20;58.60;;;;;;4979066;28;96207;-45
2021/01/31 09:31:12;;;;;;;2.45;1.15;;;22.20;58.00;;;;;;4981499;28;95908;-45
2021/01/31 09:33:45;;;;;;;2.17;1.10;;;22.20;58.70;;;;;;4995726;28;95804;-45
2021/01/31 09:36:22;;;;;;;2.30;1.52;;;22.10;58.30;;;;;;5002871;28;95838;-45
2021/01/31 09:38:53;;;;;;;1.48;0.70;;;22.10;58.50;;;;;;4998653;28;95903;-45
2021/01/31 09:41:27;;;;;;;1.98;0.80;;;22.10;57.80;;;;;;5002934;28;95713;-46
2021/01/31 09:44:03;;;;;;;3.45;1.13;;;22.10;57.40;;;;;;4980466;28;96417;-45
2021/01/31 09:46:35;;;;;;;3.50;0.88;;;22.00;58.50;;;;;;4990461;28;95833;-45
2021/01/31 09:49:18;;;;;;;4.88;0.93;;;21.90;57.90;;;;;;4993004;28;96040;-45
2021/01/31 09:51:51;;;;;;;5.00;1.17;;;21.80;58.20;;;;;;5000505;28;95869;-45
2021/01/31 09:54:31;;;;;;;3.05;0.65;;;21.80;58.20;;;;;;4995173;28;96449;-45
2021/01/31 09:57:25;;;;;;;1.70;0.80;;;21.70;58.30;;;;;;5000485;28;95821;-44
2021/01/31 10:00:12;;;;;;;3.05;1.17;;;21.70;58.70;;;;;;4991647;28;96659;-45
2021/01/31 10:02:43;;;;;;;2.90;1.17;;;21.60;59.00;;;;;;5000089;28;104032;-45
2021/01/31 10:05:18;;;;;;;5.50;1.40;;;21.60;59.00;;;;;;4993044;28;97558;-46
2021/01/31 10:07:50;;;;;;;2.63;0.60;;;21.60;58.30;;;;;;4997288;28;96555;-44
2021/01/31 10:10:42;;;;;;;3.10;1.02;;;21.50;58.40;;;;;;4995001;28;96565;-46
2021/01/31 10:13:34;;;;;;;2.63;1.33;;;21.50;59.50;;;;;;4999256;28;95967;-45
2021/01/31 10:16:19;;;;;;;2.13;1.00;;;21.40;58.60;;;;;;4983030;28;95761;-46
2021/01/31 10:18:49;;;;;;;2.08;0.80;;;21.40;59.10;;;;;;4991272;28;96446;-46
2021/01/31 10:21:31;;;;;;;5.50;1.42;;;21.40;59.00;;;;;;4986799;28;97013;-45
2021/01/31 10:24:21;;;;;;;1.67;0.80;;;21.40;59.10;;;;;;4977160;28;96640;-46
2021/01/31 10:27:10;;;;;;;1.92;0.98;;;21.40;59.10;;;;;;4998256;28;95861;-46
2021/01/31 10:29:40;;;;;;;0.88;0.70;;;21.40;59.10;;;;;;5001523;28;96844;-46
2021/01/31 10:32:26;;;;;;;1.13;0.65;;;21.40;59.40;;;;;;4992499;28;96872;-46
2021/01/31 10:34:56;;;;;;;0.90;0.68;;;21.40;59.20;;;;;;4983464;28;96248;-46
2021/01/31 10:37:39;;;;;;;3.88;1.23;;;21.40;59.60;;;;;;4994285;28;96629;-46
2021/01/31 10:40:09;;;;;;;2.78;0.98;;;21.40;59.40;;;;;;4996303;28;95332;-47
2021/01/31 10:42:41;;;;;;;1.30;0.88;;;21.40;59.90;;;;;;4996609;28;95896;-46
2021/01/31 10:45:18;;;;;;;1.10;0.70;;;21.40;59.60;;;;;;4999352;28;95427;-46
2021/01/31 10:47:49;;;;;;;3.42;1.05;;;21.40;59.80;;;;;;4989192;28;95721;-46
2021/01/31 10:50:21;;;;;;;2.88;1.02;;;21.40;59.80;;;;;;4996110;28;95957;-46
2021/01/31 10:52:56;;;;;;;3.58;1.00;;;21.40;59.80;;;;;;4993870;28;96097;-46
2021/01/31 10:55:26;;;;;;;2.40;0.70;;;21.30;59.50;;;;;;4990710;28;96216;-45
2021/01/31 10:57:56;;;;;;;4.85;1.33;;;21.30;59.90;;;;;;4992598;28;96173;-46
2021/01/31 11:00:25;;;;;;;5.13;1.20;;;21.30;60.00;;;;;;4978933;28;95822;-46
2021/01/31 11:02:57;;;;;;;2.20;1.02;;;21.30;59.90;;;;;;4994843;28;103122;-48
2021/01/31 11:05:27;;;;;;;1.83;0.60;;;21.30;60.00;;;;;;4997954;28;96604;-47
2021/01/31 11:07:59;;;;;;;0.90;0.70;;;21.20;60.10;;;;;;4997373;28;96102;-46
2021/01/31 11:10:31;;;;;;;2.25;0.75;;;21.20;60.20;;;;;;4965766;28;95361;-46
2021/01/31 11:13:01;;;;;;;;;;;21.20;60.30;;;;;;5003420;27;96635;-46
2021/01/31 11:15:32;;;;;;;1.38;0.60;;;21.20;59.90;;;;;;4999276;28;95452;-46
2021/01/31 11:18:04;;;;;;;4.03;0.80;;;21.20;60.50;;;;;;4996241;28;95419;-46
2021/01/31 11:20:34;;;;;;;2.13;0.82;;;21.20;60.30;;;;;;4999207;28;95740;-47
2021/01/31 11:23:05;;;;;;;3.33;0.80;;;21.20;60.60;;;;;;4997074;28;98384;-47
2021/01/31 11:25:36;;;;;;;1.20;0.60;;;21.20;60.50;;;;;;4981895;28;97606;-46
2021/01/31 11:28:05;;;;;;;3.43;0.70;;;21.10;60.60;;;;;;4993487;28;96316;-46
2021/01/31 11:30:36;;;;;;;2.85;0.73;;;21.10;60.60;;;;;;4996452;28;96542;-45
2021/01/31 11:33:08;;;;;;;3.75;0.80;;;21.00;60.50;;;;;;4999435;28;96503;-46
2021/01/31 11:35:38;;;;;;;3.15;0.85;;;20.90;60.50;;;;;;4999398;28;96152;-46
2021/01/31 11:38:09;;;;;;;5.30;1.20;;;20.90;60.70;;;;;;4998580;28;96639;-45
2021/01/31 11:40:40;;;;;;;3.03;0.98;;;20.80;60.80;;;;;;5001235;28;95864;-46
2021/01/31 11:43:12;;;;;;;7.13;1.20;;;20.70;60.70;;;;;;4998166;28;96584;-46
2021/01/31 11:45:43;;;;;;;5.57;1.00;;;20.70;60.80;;;;;;4978961;28;96066;-45
2021/01/31 11:48:13;;;;;;;3.30;1.30;;;20.60;61.10;;;;;;4994792;28;102155;-47
2021/01/31 11:50:44;;;;;;;2.20;0.75;;;20.60;61.20;;;;;;5001521;28;95706;-46
2021/01/31 11:53:15;;;;;;;1.30;0.75;;;20.60;62.00;;;;;;4981306;28;96124;-49
2021/01/31 11:55:46;;;;;;;4.55;1.15;;;20.60;62.10;;;;;;4986945;28;96135;-46
2021/01/31 11:58:17;;;;;;;3.13;0.60;;;20.70;62.20;;;;;;4998404;28;95610;-47
2021/01/31 12:00:48;;;;;;;0.95;0.47;;;20.80;62.30;;;;;;4984067;28;95868;-47
2021/01/31 12:03:19;;;;;;;2.40;0.60;;;20.80;62.20;;;;;;4983724;28;96083;-47
2021/01/31 12:05:50;;;;;;;2.15;1.08;;;20.90;62.30;;;;;;4994384;28;96043;-47
2021/01/31 12:08:21;;;;;;;4.03;0.95;;;21.00;62.40;;;;;;4995973;28;95729;-50
2021/01/31 12:10:52;;;;;;;2.67;0.47;;;21.00;62.30;;;;;;4997177;28;95788;-46
2021/01/31 12:13:22;;;;;;;2.17;0.70;;;21.00;62.30;;;;;;4987690;28;96577;-47
2021/01/31 12:15:53;;;;;;;0.57;0.57;;;21.10;62.40;;;;;;4986954;28;95364;-47
2021/01/31 12:18:24;;;;;;;;;;;21.10;62.50;;;;;;4997952;28;95998;-47
2021/01/31 12:20:55;;;;;;;0.63;0.40;;;21.10;62.30;;;;;;4987753;28;96180;-47
2021/01/31 12:23:26;;;;;;;2.92;0.73;;;21.10;62.50;;;;;;4999210;28;96044;-46
2021/01/31 12:25:56;;;;;;;1.38;0.63;;;21.10;62.40;;;;;;4991009;28;95368;-46
2021/01/31 12:28:27;;;;;;;0.85;0.75;;;21.20;62.50;;;;;;4992128;28;95665;-47
2021/01/31 12:30:58;;;;;;;2.63;0.73;;;21.20;62.40;;;;;;4990914;28;95760;-48
2021/01/31 12:33:29;;;;;;;2.28;0.82;;;21.20;62.50;;;;;;4987234;28;95961;-47
2021/01/31 12:35:59;;;;;;;1.10;0.45;;;21.20;62.40;;;;;;4993075;28;96895;-47
2021/01/31 12:38:30;;;;;;;2.25;0.75;;;21.20;62.40;;;;;;5006378;28;98406;-46
2021/01/31 12:41:01;;;;;;;1.50;0.70;;;21.20;62.40;;;;;;4989237;28;96023;-47
2021/01/31 12:43:32;;;;;;;1.50;0.70;;;21.30;63.10;;;;;;4985137;28;96386;-47
2021/01/31 12:46:03;;;;;;;2.33;0.80;;;21.30;62.40;;;;;;4995292;28;103009;-47
2021/01/31 12:48:33;;;;;;;3.30;0.70;;;21.30;62.40;;;;;;5003315;28;95917;-47
2021/01/31 12:51:05;;;;;;;2.22;0.75;;;21.30;62.40;;;;;;4993217;28;95795;-50
2021/01/31 12:53:35;;;;;;;;;;;21.30;62.40;;;;;;5001874;28;96518;-49
2021/01/31 12:56:06;;;;;;;2.10;0.63;;;21.30;62.30;;;;;;4989132;28;95338;-47
2021/01/31 12:58:37;;;;;;;1.47;0.57;;;21.30;62.40;;;;;;4988468;28;95298;-47
2021/01/31 13:01:07;;;;;;;1.77;0.88;;;21.30;62.50;;;;;;4991315;28;96171;-48
2021/01/31 13:03:38;;;;;;;2.40;0.80;;;21.30;62.50;;;;;;4990449;28;96457;-46
2021/01/31 13:06:09;;;;;;;3.00;0.90;;;21.30;62.50;;;;;;4994201;28;95881;-47
2021/01/31 13:08:40;;;;;;;2.63;0.80;;;21.30;62.50;;;;;;4986693;28;95432;-47
2021/01/31 13:11:11;;;;;;;1.92;0.75;;;21.30;62.50;;;;;;4968454;28;95838;-46
2021/01/31 13:13:41;;;;;;;3.33;0.90;;;21.30;62.60;;;;;;4999025;28;95888;-46
2021/01/31 13:16:13;;;;;;;0.77;0.40;;;21.30;62.60;;;;;;4987372;28;95660;-47
2021/01/31 13:18:45;;;;;;;2.03;0.90;;;21.30;62.60;;;;;;4997998;28;95826;-47
2021/01/31 13:21:16;;;;;;;1.63;0.40;;;21.20;62.60;;;;;;4991426;28;95403;-48
2021/01/31 13:23:46;;;;;;;4.10;0.70;;;21.20;62.70;;;;;;4991780;28;96464;-47
2021/01/31 13:26:18;;;;;;;2.20;0.77;;;21.20;62.70;;;;;;4982284;28;95408;-47
2021/01/31 13:28:48;;;;;;;2.78;0.80;;;21.30;63.30;;;;;;4986226;28;102194;-47
2021/01/31 13:31:19;;;;;;;2.45;0.60;;;21.20;62.70;;;;;;4987379;28;95900;-47
2021/01/31 13:33:50;;;;;;;2.58;0.88;;;21.20;62.70;;;;;;4985053;28;96637;-46
2021/01/31 13:36:19;;;;;;;2.10;0.68;;;21.20;62.70;;;;;;4987050;28;95444;-45
2021/01/31 13:38:49;;;;;;;2.38;0.90;;;21.20;62.80;;;;;;4987504;28;96676;-49
2021/01/31 13:41:20;;;;;;;2.50;0.98;;;21.20;62.70;;;;;;4985874;28;95828;-47
2021/01/31 13:43:51;;;;;;;0.80;0.60;;;21.20;62.70;;;;;;5007126;27;96422;-49
2021/01/31 13:46:22;;;;;;;1.60;0.70;;;21.20;62.70;;;;;;4988474;28;95808;-47
2021/01/31 13:48:53;;;;;;;1.17;0.85;;;21.20;62.70;;;;;;4987379;28;96140;-47
2021/01/31 13:51:23;;;;;;;;;;;21.20;62.80;;;;;;4996630;28;95292;-46
2021/01/31 13:53:53;;;;;;;2.05;1.00;;;21.20;62.70;;;;;;4988302;28;101523;-48
2021/01/31 13:56:24;;;;;;;1.75;1.02;;;21.10;62.80;;;;;;4996277;28;95762;-47
2021/01/31 13:58:55;;;;;;;0.43;0.40;;;21.10;62.70;;;;;;4996928;28;95731;-51
2021/01/31 14:01:26;;;;;;;2.08;0.70;;;21.10;62.80;;;;;;5003914;28;95815;-45
2021/01/31 14:03:57;;;;;;;0.60;0.60;;;21.10;62.80;;;;;;4981084;28;98403;-47
2021/01/31 14:06:30;;;;;;;0.98;0.80;;;21.10;62.80;;;;;;4984130;28;95798;-45
2021/01/31 14:09:01;;;;;;;1.02;0.68;;;21.10;62.80;;;;;;4985394;28;95357;-46
2021/01/31 14:11:31;;;;;;;;;;;21.10;62.90;;;;;;4987265;28;95880;-46
2021/01/31 14:14:02;;;;;;;2.63;0.80;;;21.00;62.80;;;;;;4981123;28;96882;-47
2021/01/31 14:16:33;;;;;;;1.02;0.80;;;21.00;63.00;;;;;;4974101;28;96173;-46
2021/01/31 14:19:05;;;;;;;1.48;0.85;;;21.00;63.10;;;;;;4999610;27;96420;-47
2021/01/31 14:21:36;;;;;;;1.42;1.08;;;21.00;63.10;;;;;;4991813;28;95920;-46
2021/01/31 14:24:08;;;;;;;3.95;1.35;;;21.00;63.20;;;;;;4997082;28;95879;-45
2021/01/31 14:26:39;;;;;;;3.55;1.42;;;21.00;63.20;;;;;;4997876;28;96016;-46
2021/01/31 14:29:10;;;;;;;5.45;1.38;;;21.00;63.60;;;;;;4996640;28;95927;-47
2021/01/31 14:31:41;;;;;;;12.95;1.75;;;21.00;63.50;;;;;;4991354;28;95843;-47
2021/01/31 14:34:29;;;;;;;4.03;1.48;;;21.00;63.60;;;;;;4988009;28;96001;-46
2021/01/31 14:36:58;;;;;;;5.73;1.77;;;21.10;64.10;;;;;;4994485;28;95817;-45
2021/01/31 14:39:28;;;;;;;5.43;1.58;;;21.10;63.70;;;;;;4992235;28;96062;-46
2021/01/31 14:41:59;;;;;;;4.85;1.23;;;21.10;63.60;;;;;;4992227;28;96098;-47
2021/01/31 14:44:30;;;;;;;2.60;1.27;;;21.10;63.50;;;;;;4986798;28;95923;-48
2021/01/31 14:47:01;;;;;;;4.85;1.30;;;21.20;63.60;;;;;;4990215;28;100998;-46
2021/01/31 14:49:32;;;;;;;3.03;1.25;;;21.20;63.60;;;;;;4991353;28;95741;-49
2021/01/31 14:52:04;;;;;;;3.15;1.00;;;21.20;63.50;;;;;;4983563;28;95869;-46
2021/01/31 14:54:34;;;;;;;2.97;1.17;;;21.20;63.50;;;;;;4990060;28;95926;-47
2021/01/31 14:57:06;;;;;;;8.60;1.25;;;21.20;63.40;;;;;;4988292;28;95752;-47
2021/01/31 14:59:39;;;;;;;;;;;21.20;63.40;;;;;;4994004;28;95577;-47
2021/01/31 15:02:09;;;;;;;2.40;0.82;;;21.20;63.40;;;;;;4992680;28;100910;-48
2021/01/31 15:04:40;;;;;;;2.78;0.90;;;21.30;63.30;;;;;;4987242;28;95967;-46
2021/01/31 15:07:11;;;;;;;4.05;1.10;;;21.20;63.20;;;;;;4970070;28;96299;-48
2021/01/31 15:09:42;;;;;;;2.95;0.75;;;21.20;63.30;;;;;;4985522;28;95542;-47
2021/01/31 15:12:14;;;;;;;0.90;0.80;;;21.20;63.20;;;;;;4989147;28;95604;-46
2021/01/31 15:14:48;;;;;;;6.22;1.55;;;21.20;63.10;;;;;;4995120;28;96350;-47
2021/01/31 15:17:20;;;;;;;2.17;0.90;;;21.20;63.00;;;;;;4983292;28;96577;-46
2021/01/31 15:19:51;;;;;;;3.83;1.08;;;21.30;63.00;;;;;;4975690;28;95277;-48
2021/01/31 15:22:22;;;;;;;4.38;1.02;;;21.30;63.00;;;;;;4987421;28;95507;-47
2021/01/31 15:24:53;;;;;;;1.98;0.98;;;21.30;62.90;;;;;;4985595;28;95880;-46
2021/01/31 15:27:23;;;;;;;2.55;1.20;;;21.30;63.00;;;;;;4996678;28;95726;-45
2021/01/31 15:29:54;;;;;;;4.03;1.20;;;21.30;62.90;;;;;;5002679;28;95647;-46
2021/01/31 15:32:27;;;;;;;3.00;1.20;;;21.30;62.90;;;;;;5001945;28;95866;-47
2021/01/31 15:34:58;;;;;;;1.55;0.80;;;21.30;62.80;;;;;;5014985;28;95894;-47
2021/01/31 15:37:28;;;;;;;1.57;0.73;;;21.30;62.50;;;;;;4972459;28;96061;-44
2021/01/31 15:39:58;;;;;;;3.72;0.90;;;21.30;62.70;;;;;;4993360;28;95691;-44
2021/01/31 15:42:30;;;;;;;;;;;21.30;62.50;;;;;;4975594;28;96019;-44
2021/01/31 15:45:00;;;;;;;1.23;1.05;;;21.20;62.50;;;;;;4993691;28;96311;-44
2021/01/31 15:47:31;;;;;;;2.75;0.93;;;21.20;62.50;;;;;;4993176;28;95457;-44
2021/01/31 15:50:02;;;;;;;;;;;21.20;62.50;;;;;;5000279;28;95898;-44
2021/01/31 15:52:33;;;;;;;2.20;0.68;;;21.10;62.50;;;;;;4971748;28;96028;-44
2021/01/31 15:55:08;;;;;;;2.17;0.73;;;21.10;62.70;;;;;;4997520;28;97246;-46
2021/01/31 15:57:38;;;;;;;1.48;0.70;;;21.10;62.80;;;;;;4988120;28;95426;-46